Time;durP1;ratioP1;P1;durP2;ratioP2;P2;SDS_P1;SDS_P2;PMS_P1;PMS_P2;Temp;Humidity;BMP_temperature;BMP_pressure;BME280_temperature;BME280_humidity;BME280_pressure;Samples;Min_cycle;Max_cycle;Signal;HPM_P1;HPM_P2
2023/08/21 00:00:59;;;;;;;10.55;4.82;;;23.90;99.90;;;;;;5057884;28;20176;-68
2023/08/21 00:03:25;;;;;;;5.07;4.57;;;23.90;99.90;;;;;;5058193;28;20181;-68
2023/08/21 00:05:51;;;;;;;6.00;4.55;;;23.80;99.90;;;;;;5057874;28;20180;-68
2023/08/21 00:08:16;;;;;;;6.05;4.97;;;23.80;99.90;;;;;;5057634;28;20212;-67
2023/08/21 00:10:44;;;;;;;5.65;5.13;;;23.70;99.90;;;;;;5057939;28;20172;-66
2023/08/21 00:13:10;;;;;;;5.13;4.57;;;23.70;99.90;;;;;;5056993;28;20180;-68
2023/08/21 00:15:38;;;;;;;6.57;4.90;;;23.60;99.90;;;;;;5067026;28;20207;-67
2023/08/21 00:18:07;;;;;;;5.63;4.53;;;23.60;99.90;;;;;;5061073;28;20192;-68
2023/08/21 00:20:33;;;;;;;5.90;4.57;;;23.60;99.90;;;;;;5056523;28;20218;-68
2023/08/21 00:22:58;;;;;;;5.80;4.97;;;23.60;99.90;;;;;;5057590;28;20168;-67
2023/08/21 00:25:25;;;;;;;5.22;4.72;;;23.50;99.90;;;;;;5057793;28;20173;-67
2023/08/21 00:27:53;;;;;;;5.15;4.68;;;23.50;99.90;;;;;;5054014;28;20200;-67
2023/08/21 00:30:18;;;;;;;5.65;5.00;;;23.40;99.90;;;;;;5075989;28;20196;-68
2023/08/21 00:32:46;;;;;;;7.13;4.63;;;23.40;99.90;;;;;;5070257;28;20210;-67
2023/08/21 00:35:12;;;;;;;5.32;4.53;;;23.40;99.90;;;;;;5057348;28;20168;-68
2023/08/21 00:37:40;;;;;;;5.60;5.10;;;23.40;99.90;;;;;;5056125;28;20179;-68
2023/08/21 00:40:06;;;;;;;7.43;4.93;;;23.40;99.90;;;;;;5057170;28;20237;-67
2023/08/21 00:42:31;;;;;;;4.88;4.30;;;23.30;99.90;;;;;;5049842;28;20208;-67
2023/08/21 00:44:59;;;;;;;5.07;4.57;;;23.30;99.90;;;;;;5056375;28;20283;-66
2023/08/21 00:47:25;;;;;;;5.18;4.68;;;23.30;99.90;;;;;;5055378;28;20212;-68
2023/08/21 00:49:55;;;;;;;9.98;5.10;;;23.20;99.90;;;;;;5045734;28;20201;-68
2023/08/21 00:52:21;;;;;;;5.50;4.90;;;23.20;99.90;;;;;;5057507;28;20173;-68
2023/08/21 00:54:46;;;;;;;5.82;4.88;;;23.20;99.90;;;;;;5062677;28;20256;-67
2023/08/21 00:57:16;;;;;;;5.32;4.88;;;23.20;99.90;;;;;;5057246;28;20196;-68
2023/08/21 00:59:44;;;;;;;5.78;4.88;;;23.20;99.90;;;;;;5056172;28;20234;-67
2023/08/21 01:02:12;;;;;;;6.82;5.38;;;23.20;99.90;;;;;;5059293;28;20189;-67
2023/08/21 01:04:37;;;;;;;5.63;5.13;;;23.10;99.90;;;;;;5053089;28;20267;-68
2023/08/21 01:07:09;;;;;;;6.78;5.28;;;23.10;99.90;;;;;;5037265;28;20181;-67
2023/08/21 01:09:44;;;;;;;5.18;4.68;;;23.10;99.90;;;;;;5073619;28;20183;-68
2023/08/21 01:12:29;;;;;;;5.65;5.03;;;23.10;99.90;;;;;;5054175;28;20192;-68
2023/08/21 01:15:00;;;;;;;6.10;4.95;;;23.10;99.90;;;;;;5056750;28;20251;-67
2023/08/21 01:17:29;;;;;;;5.57;4.90;;;23.10;99.90;;;;;;5054276;28;20204;-68
2023/08/21 01:19:58;;;;;;;5.35;4.85;;;23.00;99.90;;;;;;5061077;28;20283;-67
2023/08/21 01:22:27;;;;;;;6.65;5.20;;;23.10;99.90;;;;;;5055874;28;20181;-68
2023/08/21 01:24:56;;;;;;;5.50;4.78;;;23.00;99.90;;;;;;5076023;28;20173;-68
2023/08/21 01:27:24;;;;;;;6.47;5.50;;;23.00;99.90;;;;;;5053068;28;20187;-67
2023/08/21 01:29:53;;;;;;;5.97;5.38;;;23.00;99.90;;;;;;5062010;28;20192;-68
2023/08/21 01:32:32;;;;;;;5.05;4.55;;;23.00;99.90;;;;;;5060225;28;20185;-67
2023/08/21 01:35:03;;;;;;;5.60;5.10;;;23.00;99.90;;;;;;5060317;28;20203;-67
2023/08/21 01:37:30;;;;;;;7.05;5.30;;;23.00;99.90;;;;;;5062426;28;20173;-67
2023/08/21 01:39:59;;;;;;;5.32;4.82;;;22.90;99.90;;;;;;5060044;28;20224;-67
2023/08/21 01:42:27;;;;;;;5.82;5.30;;;22.90;99.90;;;;;;5055521;28;20239;-68
2023/08/21 01:44:53;;;;;;;5.90;5.40;;;22.80;99.90;;;;;;5063174;28;20177;-68
2023/08/21 01:47:18;;;;;;;6.85;6.00;;;22.80;99.90;;;;;;5059500;28;20200;-65
2023/08/21 01:49:46;;;;;;;7.45;5.72;;;22.80;99.90;;;;;;5040502;28;20268;-69
2023/08/21 01:52:14;;;;;;;6.22;5.63;;;22.70;99.90;;;;;;5054640;28;20164;-68
2023/08/21 01:54:39;;;;;;;6.38;5.78;;;22.60;99.90;;;;;;5056402;28;20247;-68
2023/08/21 01:57:09;;;;;;;5.63;5.07;;;22.60;99.90;;;;;;5040193;28;20247;-68
2023/08/21 01:59:35;;;;;;;5.78;5.18;;;22.60;99.90;;;;;;5061576;28;20168;-67
2023/08/21 02:02:03;;;;;;;6.13;5.53;;;22.50;99.90;;;;;;5058601;28;20199;-68
2023/08/21 02:04:31;;;;;;;5.85;5.25;;;22.50;99.90;;;;;;5059855;28;20164;-68
2023/08/21 02:06:57;;;;;;;5.72;5.20;;;22.40;99.90;;;;;;5054628;28;20251;-68
2023/08/21 02:09:24;;;;;;;7.35;5.72;;;22.40;99.90;;;;;;5059867;28;20388;-68
2023/08/21 02:11:50;;;;;;;5.93;5.38;;;22.40;99.90;;;;;;5059889;28;20172;-68
2023/08/21 02:14:15;;;;;;;8.32;6.05;;;22.40;99.90;;;;;;5059625;28;20176;-70
2023/08/21 02:16:41;;;;;;;6.60;6.00;;;22.40;99.90;;;;;;5060048;28;20173;-68
2023/08/21 02:19:07;;;;;;;6.03;5.43;;;22.40;99.90;;;;;;5059651;28;20180;-68
2023/08/21 02:21:34;;;;;;;5.85;5.18;;;22.30;99.90;;;;;;5059786;28;20191;-68
2023/08/21 02:23:59;;;;;;;6.07;5.53;;;22.30;99.90;;;;;;5059011;28;20215;-68
2023/08/21 02:26:25;;;;;;;5.65;5.15;;;22.30;99.90;;;;;;5059551;28;20216;-68
2023/08/21 02:28:53;;;;;;;6.47;5.63;;;22.30;99.90;;;;;;5057644;28;20291;-68
2023/08/21 02:31:19;;;;;;;6.65;5.65;;;22.40;99.90;;;;;;5059541;28;20214;-68
2023/08/21 02:33:45;;;;;;;5.60;5.05;;;22.40;99.90;;;;;;5059523;28;20479;-68
2023/08/21 02:36:10;;;;;;;5.95;5.35;;;22.40;99.90;;;;;;5062342;28;20285;-68
2023/08/21 02:38:38;;;;;;;6.70;5.43;;;22.40;99.90;;;;;;5059013;28;20183;-69
2023/08/21 02:41:06;;;;;;;6.82;5.80;;;22.40;99.90;;;;;;5064449;28;20169;-68
2023/08/21 02:43:37;;;;;;;7.03;5.82;;;22.40;99.90;;;;;;5044043;28;20209;-69
2023/08/21 02:46:02;;;;;;;5.90;5.40;;;22.40;99.90;;;;;;5055954;28;20181;-66
2023/08/21 02:48:30;;;;;;;6.30;5.70;;;22.40;99.90;;;;;;5065675;28;20211;-68
2023/08/21 02:50:59;;;;;;;6.13;5.53;;;22.30;99.90;;;;;;5061331;28;20193;-68
2023/08/21 02:53:26;;;;;;;6.22;5.63;;;22.30;99.90;;;;;;5051187;28;20172;-68
2023/08/21 02:55:52;;;;;;;7.03;5.63;;;22.30;99.90;;;;;;5059035;28;20168;-68
2023/08/21 02:58:20;;;;;;;6.22;5.63;;;22.30;99.90;;;;;;5048458;28;20286;-69
2023/08/21 03:00:45;;;;;;;6.40;5.80;;;22.20;99.90;;;;;;5057064;28;20188;-68
2023/08/21 03:03:13;;;;;;;6.35;5.45;;;22.20;99.90;;;;;;5058716;28;20230;-69
2023/08/21 03:05:41;;;;;;;6.13;5.53;;;22.20;99.90;;;;;;5055906;28;20204;-68
2023/08/21 03:08:07;;;;;;;5.95;5.35;;;22.20;99.90;;;;;;5058054;28;20192;-68
2023/08/21 03:10:34;;;;;;;6.75;5.80;;;22.20;99.90;;;;;;5070747;28;20184;-68
2023/08/21 03:12:59;;;;;;;6.43;5.82;;;22.20;99.90;;;;;;5046111;28;20181;-67
2023/08/21 03:15:25;;;;;;;6.38;5.78;;;22.20;99.90;;;;;;5038518;28;20185;-67
2023/08/21 03:17:51;;;;;;;6.25;5.65;;;22.20;99.90;;;;;;5038655;28;20188;-68
2023/08/21 03:20:19;;;;;;;7.05;6.20;;;22.20;99.90;;;;;;5038348;28;20315;-68
2023/08/21 03:22:44;;;;;;;6.57;5.72;;;22.20;99.90;;;;;;5047929;28;20191;-68
2023/08/21 03:25:12;;;;;;;6.28;5.68;;;22.20;99.90;;;;;;5058669;28;20168;-68
2023/08/21 03:27:39;;;;;;;6.80;6.00;;;22.20;99.90;;;;;;5058295;28;20215;-68
2023/08/21 03:30:08;;;;;;;6.55;5.88;;;22.20;99.90;;;;;;5057566;28;20177;-68
2023/08/21 03:32:34;;;;;;;6.70;6.10;;;22.20;99.90;;;;;;5051955;28;20193;-68
2023/08/21 03:34:59;;;;;;;6.45;5.85;;;22.20;99.90;;;;;;5074242;28;20229;-68
2023/08/21 03:37:25;;;;;;;6.90;6.13;;;22.20;99.90;;;;;;5078252;28;20236;-68
2023/08/21 03:39:53;;;;;;;8.73;5.45;;;22.20;99.90;;;;;;5078347;28;20188;-68
2023/08/21 03:42:18;;;;;;;6.15;5.55;;;22.20;99.90;;;;;;5078487;28;20180;-67
2023/08/21 03:44:49;;;;;;;7.22;5.88;;;22.20;99.90;;;;;;5069319;28;20271;-69
2023/08/21 03:47:16;;;;;;;6.25;5.40;;;22.20;99.90;;;;;;5057499;28;20205;-68
2023/08/21 03:49:41;;;;;;;6.35;5.75;;;22.20;99.90;;;;;;5058143;28;20191;-68
2023/08/21 03:52:07;;;;;;;6.70;5.63;;;22.10;99.90;;;;;;5054427;28;20169;-68
2023/08/21 03:54:33;;;;;;;5.95;5.40;;;22.20;99.90;;;;;;5047051;28;20181;-68
2023/08/21 03:56:58;;;;;;;7.10;6.15;;;22.10;99.90;;;;;;5052567;28;20196;-68
2023/08/21 03:59:27;;;;;;;10.85;9.75;;;22.10;99.90;;;;;;5057769;28;20333;-68
2023/08/21 04:01:53;;;;;;;8.20;7.40;;;22.10;99.90;;;;;;5057540;28;20204;-68
2023/08/21 04:04:19;;;;;;;7.18;6.47;;;22.10;99.90;;;;;;5054902;28;20173;-68
2023/08/21 04:06:44;;;;;;;7.65;6.72;;;22.10;99.90;;;;;;5060993;28;20235;-68
2023/08/21 04:09:10;;;;;;;6.70;6.10;;;22.10;99.90;;;;;;5062934;28;20220;-67
2023/08/21 04:11:39;;;;;;;7.35;6.40;;;22.10;99.90;;;;;;5057529;28;20177;-68
2023/08/21 04:14:07;;;;;;;6.80;6.00;;;22.00;99.90;;;;;;5055973;28;20173;-68
2023/08/21 04:16:32;;;;;;;6.93;5.90;;;22.00;99.90;;;;;;5057761;28;20177;-68
2023/08/21 04:18:58;;;;;;;5.90;5.40;;;22.00;99.90;;;;;;5062393;28;20176;-68
2023/08/21 04:21:24;;;;;;;9.18;5.57;;;22.00;99.90;;;;;;5057478;28;20227;-68
2023/08/21 04:23:50;;;;;;;5.85;5.35;;;22.00;99.90;;;;;;5050856;28;20173;-68
2023/08/21 04:26:15;;;;;;;5.75;5.22;;;22.00;99.90;;;;;;5057584;28;20181;-69
2023/08/21 04:28:41;;;;;;;8.65;7.78;;;22.00;99.90;;;;;;5057487;28;20204;-68
2023/08/21 04:31:10;;;;;;;15.45;13.85;;;22.00;99.90;;;;;;5069677;28;20259;-68
2023/08/21 04:33:35;;;;;;;11.88;10.60;;;22.00;99.90;;;;;;5074677;28;20200;-67
2023/08/21 04:36:01;;;;;;;10.45;9.30;;;22.00;99.90;;;;;;5058837;28;20253;-67
2023/08/21 04:38:27;;;;;;;8.63;7.82;;;22.00;99.90;;;;;;5055540;28;20180;-64
2023/08/21 04:40:52;;;;;;;7.85;7.05;;;22.00;99.90;;;;;;5066297;28;20184;-65
2023/08/21 04:43:18;;;;;;;7.50;6.50;;;22.00;99.90;;;;;;5061190;28;20210;-64
2023/08/21 04:45:50;;;;;;;6.78;6.18;;;22.00;99.90;;;;;;5057425;28;20169;-64
2023/08/21 04:48:18;;;;;;;8.05;6.43;;;22.00;99.90;;;;;;5056904;28;20215;-65
2023/08/21 04:50:45;;;;;;;10.82;9.73;;;21.90;99.90;;;;;;5057398;28;20169;-65
2023/08/21 04:53:13;;;;;;;9.43;8.52;;;22.00;99.90;;;;;;5053635;28;20193;-66
2023/08/21 04:55:42;;;;;;;7.53;6.85;;;22.00;99.90;;;;;;5049867;28;20176;-66
2023/08/21 04:58:10;;;;;;;10.07;6.53;;;22.00;99.90;;;;;;5057035;28;20188;-65
2023/08/21 05:00:36;;;;;;;6.70;6.10;;;22.00;99.90;;;;;;5061073;28;20176;-66
2023/08/21 05:03:02;;;;;;;6.82;6.07;;;22.00;99.90;;;;;;5061088;28;20274;-65
2023/08/21 05:05:28;;;;;;;6.10;5.50;;;22.00;99.90;;;;;;5061146;28;20184;-66
2023/08/21 05:07:54;;;;;;;6.30;5.70;;;22.00;99.90;;;;;;5061188;28;20291;-66
2023/08/21 05:10:19;;;;;;;7.82;6.03;;;22.00;99.90;;;;;;5060822;28;20287;-66
2023/08/21 05:12:46;;;;;;;6.57;5.88;;;22.00;99.90;;;;;;5061236;28;20172;-66
2023/08/21 05:15:12;;;;;;;6.93;6.22;;;22.10;99.90;;;;;;5060691;28;20474;-67
2023/08/21 05:17:38;;;;;;;6.60;5.85;;;22.10;99.90;;;;;;5055172;28;20291;-66
2023/08/21 05:20:06;;;;;;;6.97;6.18;;;22.10;99.90;;;;;;5061023;28;20172;-66
2023/08/21 05:22:32;;;;;;;7.63;6.40;;;22.10;99.90;;;;;;5059700;28;20244;-66
2023/08/21 05:24:59;;;;;;;7.13;5.93;;;22.20;99.90;;;;;;5060053;28;20211;-67
2023/08/21 05:27:25;;;;;;;7.57;6.78;;;22.20;99.90;;;;;;5059896;28;20191;-66
2023/08/21 05:29:51;;;;;;;7.93;6.55;;;22.30;99.90;;;;;;5065013;28;20169;-66
2023/08/21 05:32:17;;;;;;;8.25;6.18;;;22.30;99.90;;;;;;5060408;28;20179;-66
2023/08/21 05:34:45;;;;;;;6.57;5.97;;;22.30;99.90;;;;;;5059242;28;20273;-66
2023/08/21 05:37:10;;;;;;;7.05;6.35;;;22.40;99.90;;;;;;5060331;28;20204;-67
2023/08/21 05:39:38;;;;;;;6.65;5.95;;;22.40;99.90;;;;;;5076850;28;20250;-66
2023/08/21 05:42:04;;;;;;;6.78;6.07;;;22.50;99.90;;;;;;5059968;28;20173;-65
2023/08/21 05:44:29;;;;;;;7.47;6.70;;;22.50;99.90;;;;;;5060196;28;20204;-65
2023/08/21 05:46:57;;;;;;;8.18;6.90;;;22.50;99.90;;;;;;5060998;28;20209;-66
2023/08/21 05:49:23;;;;;;;7.55;6.38;;;22.60;99.90;;;;;;5060674;28;20212;-65
2023/08/21 05:51:48;;;;;;;8.00;6.07;;;22.60;99.90;;;;;;5060326;28;20199;-66
2023/08/21 05:54:14;;;;;;;8.93;6.30;;;22.60;99.90;;;;;;5060083;28;20173;-65
2023/08/21 05:56:42;;;;;;;6.80;6.10;;;22.70;99.90;;;;;;5060020;28;20237;-67
2023/08/21 05:59:10;;;;;;;5.93;5.32;;;22.70;99.90;;;;;;5060261;28;20287;-66
2023/08/21 06:01:36;;;;;;;7.25;6.28;;;22.80;99.90;;;;;;5059932;28;20193;-65
2023/08/21 06:04:04;;;;;;;7.78;6.07;;;22.90;99.90;;;;;;5065570;28;20202;-65
2023/08/21 06:06:29;;;;;;;6.35;5.75;;;23.00;99.90;;;;;;5076458;28;20197;-64
2023/08/21 06:08:55;;;;;;;8.52;6.68;;;23.00;99.90;;;;;;5076368;28;20200;-64
2023/08/21 06:11:21;;;;;;;6.75;5.90;;;23.10;99.90;;;;;;5075385;28;20185;-65
2023/08/21 06:13:47;;;;;;;7.65;6.75;;;23.10;99.90;;;;;;5076495;28;20201;-64
2023/08/21 06:16:13;;;;;;;8.98;6.85;;;23.20;99.90;;;;;;5076620;28;20172;-66
2023/08/21 06:18:38;;;;;;;7.93;7.13;;;23.20;99.90;;;;;;5076370;28;20172;-65
2023/08/21 06:21:06;;;;;;;6.85;6.13;;;23.30;99.90;;;;;;5076354;28;20200;-64
2023/08/21 06:23:32;;;;;;;7.78;6.07;;;23.30;99.90;;;;;;5076350;28;20187;-64
2023/08/21 06:26:00;;;;;;;6.85;6.18;;;23.30;99.90;;;;;;5075977;28;20177;-64
2023/08/21 06:28:25;;;;;;;7.38;6.68;;;23.40;99.90;;;;;;5075885;28;20270;-65
2023/08/21 06:30:58;;;;;;;7.43;6.47;;;23.40;99.90;;;;;;5076199;28;20176;-64
2023/08/21 06:33:26;;;;;;;6.90;5.85;;;23.40;99.90;;;;;;5076150;28;20199;-64
2023/08/21 06:35:56;;;;;;;6.15;5.57;;;23.40;99.90;;;;;;5061491;28;20216;-64
2023/08/21 06:38:27;;;;;;;6.43;5.82;;;23.50;99.90;;;;;;5059381;28;20242;-64
2023/08/21 06:40:55;;;;;;;7.55;5.75;;;23.50;99.90;;;;;;5055928;28;20255;-64
2023/08/21 06:43:21;;;;;;;7.00;6.30;;;23.50;99.90;;;;;;5039278;28;20228;-65
2023/08/21 06:45:47;;;;;;;7.13;5.93;;;23.50;99.90;;;;;;5039364;28;20173;-65
2023/08/21 06:48:13;;;;;;;7.43;6.20;;;23.50;99.90;;;;;;5038906;28;20224;-64
2023/08/21 06:50:41;;;;;;;8.38;6.32;;;23.50;99.90;;;;;;5039301;28;20197;-64
2023/08/21 06:53:07;;;;;;;7.07;5.88;;;23.50;99.90;;;;;;5049931;28;20334;-64
2023/08/21 06:55:32;;;;;;;7.85;6.68;;;23.50;99.90;;;;;;5058916;28;20172;-64
2023/08/21 06:58:00;;;;;;;7.80;6.68;;;23.50;99.90;;;;;;5059328;28;20184;-64
2023/08/21 07:00:26;;;;;;;6.70;6.07;;;23.50;99.90;;;;;;5058995;28;20172;-64
2023/08/21 07:02:51;;;;;;;7.43;5.78;;;23.50;99.90;;;;;;5059036;28;20184;-64
2023/08/21 07:05:19;;;;;;;7.45;5.78;;;23.50;99.90;;;;;;5059090;28;20173;-65
2023/08/21 07:07:47;;;;;;;6.88;5.72;;;23.50;99.90;;;;;;5058841;28;20192;-64
2023/08/21 07:10:13;;;;;;;6.75;5.45;;;23.50;99.90;;;;;;5059049;28;20165;-64
2023/08/21 07:12:38;;;;;;;7.20;5.72;;;23.40;99.90;;;;;;5058584;28;20269;-64
2023/08/21 07:15:04;;;;;;;8.27;5.32;;;23.40;99.90;;;;;;5058607;28;20175;-65
2023/08/21 07:17:30;;;;;;;9.13;6.35;;;23.50;99.90;;;;;;5058916;28;20172;-64
2023/08/21 07:19:56;;;;;;;6.90;6.20;;;23.50;99.90;;;;;;5075757;28;20171;-65
2023/08/21 07:22:21;;;;;;;7.35;6.40;;;23.50;99.90;;;;;;5054696;28;20173;-64
2023/08/21 07:24:48;;;;;;;8.00;6.60;;;23.50;99.90;;;;;;5039347;28;20229;-64
2023/08/21 07:27:13;;;;;;;7.63;6.28;;;23.60;99.90;;;;;;5058261;28;20196;-64
2023/08/21 07:29:39;;;;;;;6.57;6.03;;;23.60;99.90;;;;;;5058330;28;20272;-65
2023/08/21 07:32:05;;;;;;;6.63;5.95;;;23.60;99.90;;;;;;5058483;28;20169;-65
2023/08/21 07:34:30;;;;;;;8.07;6.55;;;23.60;99.90;;;;;;5075704;28;20189;-65
2023/08/21 07:36:56;;;;;;;6.93;6.13;;;23.70;99.90;;;;;;5058487;28;20169;-65
2023/08/21 07:39:22;;;;;;;7.40;5.70;;;23.70;99.90;;;;;;5058178;28;20196;-65
2023/08/21 07:41:47;;;;;;;7.15;5.63;;;23.80;99.90;;;;;;5058355;28;20291;-64
2023/08/21 07:44:15;;;;;;;6.68;6.07;;;23.90;99.90;;;;;;5057810;28;20271;-65
2023/08/21 07:46:43;;;;;;;8.43;6.68;;;23.90;99.90;;;;;;5058299;28;20184;-65
2023/08/21 07:49:10;;;;;;;6.88;5.80;;;24.00;99.90;;;;;;5057488;28;20239;-64
2023/08/21 07:51:39;;;;;;;6.55;5.60;;;24.00;99.90;;;;;;5057481;28;20169;-65
2023/08/21 07:54:04;;;;;;;6.35;5.75;;;24.10;99.90;;;;;;5057695;28;20173;-64
2023/08/21 07:56:32;;;;;;;6.55;5.63;;;24.10;99.90;;;;;;5058153;28;20172;-65
2023/08/21 07:59:01;;;;;;;7.22;5.47;;;24.20;99.90;;;;;;5058035;28;20204;-64
2023/08/21 08:01:27;;;;;;;6.93;5.50;;;24.30;99.90;;;;;;5057873;28;20199;-65
2023/08/21 08:03:52;;;;;;;7.20;5.90;;;24.40;99.90;;;;;;5057825;28;20176;-64
2023/08/21 08:06:20;;;;;;;9.07;6.10;;;24.40;99.90;;;;;;5057807;28;20175;-64
2023/08/21 08:08:46;;;;;;;7.10;6.22;;;24.50;99.90;;;;;;5057875;28;20205;-66
2023/08/21 08:11:12;;;;;;;6.90;5.78;;;24.50;99.90;;;;;;5057658;28;20168;-64
2023/08/21 08:13:40;;;;;;;11.05;6.18;;;24.60;99.90;;;;;;5057987;28;20173;-65
2023/08/21 08:16:05;;;;;;;6.65;6.05;;;24.70;99.90;;;;;;5057842;28;20204;-65
2023/08/21 08:18:33;;;;;;;6.47;5.35;;;24.70;99.90;;;;;;5041233;28;20173;-65
2023/08/21 08:20:59;;;;;;;6.85;5.45;;;24.80;99.90;;;;;;5039660;28;20262;-63
2023/08/21 08:23:25;;;;;;;6.35;5.75;;;24.80;99.90;;;;;;5058362;28;20230;-64
2023/08/21 08:25:51;;;;;;;7.13;6.10;;;24.90;99.90;;;;;;5057269;28;20179;-64
2023/08/21 08:28:16;;;;;;;6.22;5.30;;;24.90;99.90;;;;;;5057294;28;20197;-65
2023/08/21 08:30:42;;;;;;;7.07;5.50;;;25.00;99.90;;;;;;5057382;28;20192;-65
2023/08/21 08:33:10;;;;;;;6.10;5.45;;;25.00;99.90;;;;;;5056794;28;20245;-65
2023/08/21 08:35:35;;;;;;;5.68;5.07;;;25.00;99.90;;;;;;5057578;28;20173;-65
2023/08/21 08:38:04;;;;;;;5.75;5.13;;;25.10;99.90;;;;;;5057582;28;20177;-66
2023/08/21 08:40:30;;;;;;;5.38;4.88;;;25.20;99.90;;;;;;5057530;28;20189;-65
2023/08/21 08:42:56;;;;;;;6.47;5.32;;;25.30;99.90;;;;;;5077612;28;20196;-64
2023/08/21 08:45:32;;;;;;;6.05;5.28;;;25.30;99.90;;;;;;5069313;28;20233;-65
2023/08/21 08:48:04;;;;;;;5.05;4.55;;;25.40;99.90;;;;;;5057240;28;20302;-64
2023/08/21 08:50:34;;;;;;;5.25;4.75;;;25.50;99.90;;;;;;5056945;28;20253;-64
2023/08/21 08:53:00;;;;;;;5.35;4.82;;;25.50;99.90;;;;;;5053908;28;20463;-64
2023/08/21 08:55:27;;;;;;;5.93;4.60;;;25.70;99.90;;;;;;5037479;28;20186;-65
2023/08/21 08:57:53;;;;;;;5.38;4.88;;;25.80;99.90;;;;;;5037095;28;20259;-64
2023/08/21 09:00:22;;;;;;;5.15;4.65;;;25.80;99.90;;;;;;5037450;28;20174;-65
2023/08/21 09:02:51;;;;;;;6.72;4.93;;;25.90;99.90;;;;;;5037387;28;20219;-64
2023/08/21 09:05:17;;;;;;;6.13;4.30;;;26.00;99.90;;;;;;5039925;28;20173;-64
2023/08/21 09:07:42;;;;;;;5.90;4.60;;;26.10;99.90;;;;;;5057200;28;20203;-64
2023/08/21 09:10:15;;;;;;;5.72;4.60;;;26.20;99.90;;;;;;5074646;28;20169;-65
2023/08/21 09:12:44;;;;;;;7.68;4.30;;;26.20;99.90;;;;;;5057244;28;20180;-65
2023/08/21 09:15:12;;;;;;;5.57;4.95;;;26.30;99.90;;;;;;5057270;28;20169;-65
2023/08/21 09:17:42;;;;;;;5.32;4.53;;;26.40;99.90;;;;;;5057108;28;20214;-66
2023/08/21 09:20:09;;;;;;;5.80;5.00;;;26.50;99.90;;;;;;5057208;28;20180;-64
2023/08/21 09:22:35;;;;;;;5.80;4.75;;;26.60;99.90;;;;;;5057019;28;20423;-64
2023/08/21 09:25:10;;;;;;;6.18;5.47;;;26.60;99.90;;;;;;5056876;28;20250;-64
2023/08/21 09:27:41;;;;;;;5.78;5.20;;;26.70;99.90;;;;;;5056787;28;20178;-64
2023/08/21 09:30:15;;;;;;;7.22;5.07;;;26.80;99.90;;;;;;5056888;28;20462;-64
2023/08/21 09:33:00;;;;;;;6.30;5.22;;;26.90;99.90;;;;;;5056811;28;20197;-65
2023/08/21 09:35:32;;;;;;;5.75;5.15;;;27.00;99.90;;;;;;5056754;28;20218;-64
2023/08/21 09:37:57;;;;;;;5.43;4.93;;;27.00;99.90;;;;;;5057145;28;20227;-64
2023/08/21 09:40:23;;;;;;;5.95;5.32;;;27.10;99.90;;;;;;5056915;28;20189;-65
2023/08/21 09:43:00;;;;;;;6.13;5.50;;;27.20;99.90;;;;;;5056947;28;20195;-66
2023/08/21 09:45:29;;;;;;;6.95;5.07;;;27.30;99.90;;;;;;5059017;28;20210;-66
2023/08/21 09:47:55;;;;;;;6.07;5.22;;;27.30;99.90;;;;;;5059926;28;20200;-65
2023/08/21 09:50:24;;;;;;;6.65;5.53;;;27.40;99.90;;;;;;5060516;28;20255;-65
2023/08/21 09:52:51;;;;;;;6.55;5.85;;;27.50;99.90;;;;;;5060260;28;20192;-65
2023/08/21 09:55:21;;;;;;;6.70;5.35;;;27.50;99.90;;;;;;5060261;28;20175;-64
2023/08/21 09:57:48;;;;;;;6.93;5.10;;;27.60;99.90;;;;;;5060038;28;20255;-65
2023/08/21 10:00:20;;;;;;;5.18;4.28;;;27.70;99.90;;;;;;5040042;28;20252;-64
2023/08/21 10:02:53;;;;;;;6.00;4.65;;;27.70;99.90;;;;;;5056703;28;20232;-65
2023/08/21 10:05:19;;;;;;;6.97;4.65;;;27.80;99.90;;;;;;5040144;28;20170;-65
2023/08/21 10:07:49;;;;;;;5.32;4.82;;;27.90;99.90;;;;;;5056443;28;20183;-65
2023/08/21 10:10:21;;;;;;;5.93;5.22;;;28.00;99.90;;;;;;5079771;28;20172;-65
2023/08/21 10:12:48;;;;;;;6.28;5.00;;;28.10;99.90;;;;;;5080127;28;20282;-65
2023/08/21 10:15:14;;;;;;;5.78;5.18;;;28.30;99.90;;;;;;5079613;28;20183;-65
2023/08/21 10:17:42;;;;;;;5.65;4.60;;;28.60;99.90;;;;;;5079437;28;20187;-65
2023/08/21 10:20:11;;;;;;;6.20;4.75;;;29.00;99.90;;;;;;5079528;28;20199;-65
2023/08/21 10:22:54;;;;;;;6.93;5.25;;;29.40;99.90;;;;;;5063091;28;20231;-65
2023/08/21 10:25:22;;;;;;;6.43;4.80;;;29.90;99.90;;;;;;5042709;28;20180;-65
2023/08/21 10:27:53;;;;;;;5.38;4.47;;;30.30;99.90;;;;;;5059334;28;20405;-64
2023/08/21 10:30:25;;;;;;;4.32;3.92;;;30.80;99.90;;;;;;5059698;28;20164;-65
2023/08/21 10:32:53;;;;;;;6.82;4.28;;;31.10;99.90;;;;;;5059339;28;20192;-65
2023/08/21 10:35:22;;;;;;;5.18;4.32;;;31.40;99.90;;;;;;5059617;28;20168;-65
2023/08/21 10:38:15;;;;;;;5.82;4.15;;;31.60;99.90;;;;;;5059401;28;20174;-65
2023/08/21 10:41:01;;;;;;;5.35;4.10;;;32.00;99.90;;;;;;5059761;28;20283;-65
2023/08/21 10:43:48;;;;;;;4.25;3.83;;;32.30;99.90;;;;;;5078969;28;20163;-65
2023/08/21 10:46:15;;;;;;;4.70;3.45;;;32.50;99.90;;;;;;5079328;28;20251;-65
2023/08/21 10:48:42;;;;;;;4.70;3.58;;;32.70;99.90;;;;;;5079220;28;20210;-66
2023/08/21 10:51:08;;;;;;;4.28;3.88;;;32.80;99.90;;;;;;5046066;28;20184;-66
2023/08/21 10:53:35;;;;;;;5.20;4.28;;;33.00;99.90;;;;;;5075725;28;20172;-65
2023/08/21 10:56:07;;;;;;;5.55;4.07;;;33.10;99.90;;;;;;5078794;28;20171;-66
2023/08/21 10:58:51;;;;;;;5.70;4.00;;;33.20;99.90;;;;;;5079339;28;20255;-65
2023/08/21 11:01:16;;;;;;;5.32;4.68;;;33.20;99.90;;;;;;5079534;28;20215;-65
2023/08/21 11:03:49;;;;;;;5.97;4.40;;;33.30;99.90;;;;;;5053463;28;20250;-65
2023/08/21 11:06:21;;;;;;;4.53;3.88;;;33.30;99.90;;;;;;5059039;28;20182;-65
2023/08/21 11:08:51;;;;;;;5.72;4.43;;;33.40;99.90;;;;;;5058824;28;20235;-65
2023/08/21 11:11:18;;;;;;;5.88;4.00;;;33.40;99.90;;;;;;5059366;28;20177;-65
2023/08/21 11:13:55;;;;;;;5.47;3.80;;;33.30;99.90;;;;;;5058530;28;20168;-64
2023/08/21 11:16:24;;;;;;;5.03;3.55;;;33.30;99.90;;;;;;5058733;28;20236;-67
2023/08/21 11:18:50;;;;;;;4.40;4.00;;;33.30;99.90;;;;;;5058897;28;20175;-64
2023/08/21 11:21:15;;;;;;;4.28;3.88;;;33.40;99.90;;;;;;5058715;28;20229;-66
2023/08/21 11:23:42;;;;;;;4.10;3.50;;;33.40;99.90;;;;;;5058261;28;20228;-65
2023/08/21 11:26:11;;;;;;;4.75;3.63;;;33.40;99.90;;;;;;5058467;28;20201;-65
2023/08/21 11:28:38;;;;;;;5.07;3.50;;;33.50;99.90;;;;;;5058226;28;20208;-65
2023/08/21 11:31:06;;;;;;;3.75;3.45;;;33.50;99.90;;;;;;5058327;28;20266;-65
2023/08/21 11:33:32;;;;;;;4.90;3.55;;;33.50;99.90;;;;;;5058259;28;20180;-67
2023/08/21 11:36:00;;;;;;;4.03;3.13;;;33.60;99.90;;;;;;5058036;28;20385;-66
2023/08/21 11:38:26;;;;;;;5.30;2.92;;;33.60;99.90;;;;;;5058642;28;20180;-65
2023/08/21 11:40:59;;;;;;;4.13;3.45;;;33.70;99.90;;;;;;5057967;28;20275;-65
2023/08/21 11:43:42;;;;;;;4.15;3.33;;;33.60;99.90;;;;;;5058144;28;20198;-66
2023/08/21 11:46:10;;;;;;;3.85;3.38;;;33.60;99.90;;;;;;5058049;28;20180;-66
2023/08/21 11:48:38;;;;;;;4.85;3.38;;;33.70;99.90;;;;;;5057869;28;20204;-66
2023/08/21 11:51:03;;;;;;;5.43;3.70;;;33.80;99.90;;;;;;5054944;28;20189;-65
2023/08/21 11:53:35;;;;;;;4.63;3.50;;;33.80;99.90;;;;;;5038227;28;20405;-66
2023/08/21 11:56:01;;;;;;;3.83;3.20;;;33.80;99.90;;;;;;5038031;28;20200;-66
2023/08/21 11:58:30;;;;;;;4.57;2.97;;;33.80;99.90;;;;;;5038051;28;20192;-65
2023/08/21 12:01:03;;;;;;;3.97;2.83;;;33.80;99.90;;;;;;5055515;28;20177;-65
2023/08/21 12:03:32;;;;;;;3.95;2.63;;;33.80;99.90;;;;;;5038233;28;20287;-65
2023/08/21 12:06:00;;;;;;;6.07;3.05;;;33.80;99.90;;;;;;5037724;28;20173;-65
2023/08/21 12:08:27;;;;;;;4.88;3.50;;;33.70;99.90;;;;;;5037003;28;20203;-64
2023/08/21 12:10:55;;;;;;;3.75;3.22;;;33.70;99.90;;;;;;5050469;28;20208;-65
2023/08/21 12:13:25;;;;;;;4.15;3.13;;;33.60;99.90;;;;;;5037707;28;20201;-65
2023/08/21 12:15:51;;;;;;;5.18;3.15;;;33.50;99.90;;;;;;5055943;28;20187;-66
2023/08/21 12:18:19;;;;;;;4.82;3.20;;;33.50;99.90;;;;;;5057645;28;20171;-65
2023/08/21 12:20:45;;;;;;;4.18;3.60;;;33.40;99.90;;;;;;5057665;28;20168;-65
2023/08/21 12:23:13;;;;;;;6.50;3.95;;;33.50;99.90;;;;;;5057482;28;20179;-66
2023/08/21 12:25:38;;;;;;;6.68;3.78;;;33.50;99.90;;;;;;5057577;28;20237;-67
2023/08/21 12:28:05;;;;;;;5.50;3.80;;;33.50;99.90;;;;;;5074512;28;20204;-66
2023/08/21 12:30:31;;;;;;;5.78;3.60;;;33.40;99.90;;;;;;5067738;28;20192;-66
2023/08/21 12:32:57;;;;;;;4.55;3.38;;;33.40;99.90;;;;;;5057646;28;20179;-65
2023/08/21 12:35:23;;;;;;;3.65;3.35;;;33.30;99.90;;;;;;5057404;28;20176;-66
2023/08/21 12:37:48;;;;;;;6.65;3.33;;;33.30;99.90;;;;;;5057345;28;20195;-66
2023/08/21 12:40:16;;;;;;;5.03;2.97;;;33.30;99.90;;;;;;5057644;28;20172;-66
2023/08/21 12:42:44;;;;;;;3.70;2.92;;;33.30;99.90;;;;;;5057788;28;20277;-65
2023/08/21 12:45:11;;;;;;;4.20;3.38;;;33.20;99.90;;;;;;5057022;28;20210;-65
2023/08/21 12:47:36;;;;;;;3.55;3.00;;;33.30;99.90;;;;;;5056683;28;20208;-66